Time;durP1;ratioP1;P1;durP2;ratioP2;P2;SDS_P1;SDS_P2;PMS_P1;PMS_P2;Temp;Humidity;BMP_temperature;BMP_pressure;BME280_temperature;BME280_humidity;BME280_pressure;Samples;Min_cycle;Max_cycle;Signal;HPM_P1;HPM_P2
2024/02/05 00:00:27;;;;;;;;;8.67;8.00;;;;;;;;5084279;28;45453;-79
2024/02/05 00:02:52;;;;;;;;;9.00;7.00;;;;;;;;5081249;28;45322;-80
2024/02/05 00:05:18;;;;;;;;;9.00;8.00;;;;;;;;5084122;27;45301;-79
2024/02/05 00:07:43;;;;;;;;;5.00;5.00;;;;;;;;5081319;27;45573;-79
2024/02/05 00:10:08;;;;;;;;;12.00;8.00;;;;;;;;5080576;27;45417;-79
2024/02/05 00:12:33;;;;;;;;;10.00;7.00;;;;;;;;5082992;27;45251;-79
2024/02/05 00:14:59;;;;;;;;;7.67;7.00;;;;;;;;5082801;28;45517;-78
2024/02/05 00:17:25;;;;;;;;;7.33;7.33;;;;;;;;5086316;27;45264;-79
2024/02/05 00:19:50;;;;;;;;;5.00;5.00;;;;;;;;5081967;27;45237;-79
2024/02/05 00:22:15;;;;;;;;;10.00;8.00;;;;;;;;5084353;28;45192;-79
2024/02/05 00:24:40;;;;;;;;;7.33;6.67;;;;;;;;5081411;27;45402;-78
2024/02/05 00:27:06;;;;;;;;;9.00;8.00;;;;;;;;5085011;27;45392;-80
2024/02/05 00:29:31;;;;;;;;;8.00;7.00;;;;;;;;5080302;28;45539;-79
2024/02/05 00:31:56;;;;;;;;;8.67;8.67;;;;;;;;5082185;27;45268;-78
2024/02/05 00:34:21;;;;;;;;;7.00;3.00;;;;;;;;5082177;27;45282;-79
2024/02/05 00:36:47;;;;;;;;;8.67;8.67;;;;;;;;5083799;28;46814;-79
2024/02/05 00:39:12;;;;;;;;;10.33;9.33;;;;;;;;5081311;28;45923;-79
2024/02/05 00:41:37;;;;;;;;;9.00;7.00;;;;;;;;5083158;27;45285;-78
2024/02/05 00:44:02;;;;;;;;;10.67;7.67;;;;;;;;5080740;27;45535;-79
2024/02/05 00:46:28;;;;;;;;;8.67;8.67;;;;;;;;5081484;27;45440;-78
2024/02/05 00:48:54;;;;;;;;;8.67;7.00;;;;;;;;5081622;27;45404;-78
2024/02/05 00:51:19;;;;;;;;;8.33;8.00;;;;;;;;5079144;28;45941;-79
2024/02/05 00:53:44;;;;;;;;;9.33;8.33;;;;;;;;5081421;27;45294;-79
2024/02/05 00:56:09;;;;;;;;;10.67;5.33;;;;;;;;5083800;27;45420;-79
2024/02/05 00:58:34;;;;;;;;;11.00;9.00;;;;;;;;5061508;27;46458;-78
2024/02/05 01:01:00;;;;;;;;;5.67;3.00;;;;;;;;5061746;28;45351;-78
2024/02/05 01:03:25;;;;;;;;;6.00;4.00;;;;;;;;5058435;28;45497;-79
2024/02/05 01:05:50;;;;;;;;;4.00;4.00;;;;;;;;5060933;28;45573;-78
2024/02/05 01:08:15;;;;;;;;;6.00;5.67;;;;;;;;5060902;28;45509;-79
2024/02/05 01:10:40;;;;;;;;;8.67;5.33;;;;;;;;5060449;28;45433;-79
2024/02/05 01:13:06;;;;;;;;;8.67;7.00;;;;;;;;5062823;28;45346;-78
2024/02/05 01:15:31;;;;;;;;;5.00;4.67;;;;;;;;5060798;28;46313;-79
2024/02/05 01:17:57;;;;;;;;;7.67;6.00;;;;;;;;5062229;28;45290;-79
2024/02/05 01:20:22;;;;;;;;;6.33;5.00;;;;;;;;5059106;28;45584;-78
2024/02/05 01:22:47;;;;;;;;;9.00;6.00;;;;;;;;5061597;28;45285;-80
2024/02/05 01:25:13;;;;;;;;;5.67;5.67;;;;;;;;5060851;28;46642;-79
2024/02/05 01:27:38;;;;;;;;;6.67;5.00;;;;;;;;5060650;28;45328;-79
2024/02/05 01:30:04;;;;;;;;;8.67;7.67;;;;;;;;5063583;28;45334;-79
2024/02/05 01:32:29;;;;;;;;;6.00;5.00;;;;;;;;5060301;28;45349;-78
2024/02/05 01:34:54;;;;;;;;;5.33;4.67;;;;;;;;5059772;28;45433;-79
2024/02/05 01:37:19;;;;;;;;;8.00;5.00;;;;;;;;5061435;28;48339;-79
2024/02/05 01:39:44;;;;;;;;;4.67;3.00;;;;;;;;5062652;28;45449;-80
2024/02/05 01:42:10;;;;;;;;;9.67;7.67;;;;;;;;5061725;28;45310;-78
2024/02/05 01:44:35;;;;;;;;;5.00;5.00;;;;;;;;5062620;28;45118;-80
2024/02/05 01:47:01;;;;;;;;;7.00;6.33;;;;;;;;5061956;28;46116;-79
2024/02/05 01:49:26;;;;;;;;;7.00;5.00;;;;;;;;5058700;28;45304;-79
2024/02/05 01:51:54;;;;;;;;;7.00;6.00;;;;;;;;5058612;28;45214;-78
2024/02/05 01:54:21;;;;;;;;;6.00;5.00;;;;;;;;5063585;28;45558;-78
2024/02/05 01:56:47;;;;;;;;;6.00;6.00;;;;;;;;5065612;28;46049;-79
2024/02/05 01:59:13;;;;;;;;;7.00;6.00;;;;;;;;5080234;28;45386;-80
2024/02/05 02:01:39;;;;;;;;;9.33;8.67;;;;;;;;5062607;28;45308;-79
2024/02/05 02:04:05;;;;;;;;;6.00;4.00;;;;;;;;5061245;28;46296;-78
2024/02/05 02:06:32;;;;;;;;;7.00;3.67;;;;;;;;5063569;28;46333;-78
2024/02/05 02:08:57;;;;;;;;;7.00;6.00;;;;;;;;5066308;28;45388;-79
2024/02/05 02:11:22;;;;;;;;;6.00;5.67;;;;;;;;5064458;28;45514;-79
2024/02/05 02:13:47;;;;;;;;;6.67;4.67;;;;;;;;5064189;28;45221;-78
2024/02/05 02:16:18;;;;;;;;;4.67;4.67;;;;;;;;5063771;28;48211;-78
2024/02/05 02:18:44;;;;;;;;;7.33;5.00;;;;;;;;5066298;28;45375;-78
2024/02/05 02:21:12;;;;;;;;;4.33;4.00;;;;;;;;5065641;28;45310;-80
2024/02/05 02:23:38;;;;;;;;;6.00;6.00;;;;;;;;5065579;28;45266;-78
2024/02/05 02:26:03;;;;;;;;;5.00;4.33;;;;;;;;5065739;28;47407;-79
2024/02/05 02:28:29;;;;;;;;;3.00;3.00;;;;;;;;5062528;28;45251;-79
2024/02/05 02:30:56;;;;;;;;;5.00;4.33;;;;;;;;5062816;28;45271;-79
2024/02/05 02:33:23;;;;;;;;;6.67;6.00;;;;;;;;5062684;28;46802;-78
2024/02/05 02:36:07;;;;;;;;;6.67;5.00;;;;;;;;5064438;28;47281;-79
2024/02/05 02:38:39;;;;;;;;;7.33;5.33;;;;;;;;5062106;28;45311;-80
2024/02/05 02:41:06;;;;;;;;;3.67;3.67;;;;;;;;5063863;28;45450;-80
2024/02/05 02:43:41;;;;;;;;;6.67;5.00;;;;;;;;5065500;28;45522;-79
2024/02/05 02:46:07;;;;;;;;;6.00;4.00;;;;;;;;5063570;28;46120;-79
2024/02/05 02:48:32;;;;;;;;;5.00;3.67;;;;;;;;5061653;28;45399;-79
2024/02/05 02:50:58;;;;;;;;;6.00;6.00;;;;;;;;5061234;28;45453;-80
2024/02/05 02:53:23;;;;;;;;;6.67;5.00;;;;;;;;5063114;28;45288;-79
2024/02/05 02:55:49;;;;;;;;;5.00;4.00;;;;;;;;5063812;28;45513;-80
2024/02/05 02:58:15;;;;;;;;;3.00;3.00;;;;;;;;5077983;28;45239;-79
2024/02/05 03:00:40;;;;;;;;;5.67;5.00;;;;;;;;5080637;28;45273;-79
2024/02/05 03:03:05;;;;;;;;;3.00;3.00;;;;;;;;5080496;27;46056;-80
2024/02/05 03:05:31;;;;;;;;;3.00;2.67;;;;;;;;5081633;28;45369;-79
2024/02/05 03:07:56;;;;;;;;;8.00;5.00;;;;;;;;5080781;28;45335;-79
2024/02/05 03:10:21;;;;;;;;;7.00;4.00;;;;;;;;5084179;27;45300;-79
2024/02/05 03:12:46;;;;;;;;;8.33;4.67;;;;;;;;5083908;28;45480;-79
2024/02/05 03:15:11;;;;;;;;;5.00;5.00;;;;;;;;5082081;27;45167;-79
2024/02/05 03:17:37;;;;;;;;;3.00;3.00;;;;;;;;5085012;27;45259;-78
2024/02/05 03:20:02;;;;;;;;;5.50;4.00;;;;;;;;5081738;27;45346;-79
2024/02/05 03:22:27;;;;;;;;;4.00;4.00;;;;;;;;5081113;28;46870;-79
2024/02/05 03:24:53;;;;;;;;;4.33;4.00;;;;;;;;5082150;28;46237;-78
2024/02/05 03:27:18;;;;;;;;;4.00;4.00;;;;;;;;5081820;27;45183;-79
2024/02/05 03:29:43;;;;;;;;;4.00;4.00;;;;;;;;5081580;27;45305;-79
2024/02/05 03:32:08;;;;;;;;;3.00;3.00;;;;;;;;5080177;28;46969;-79
2024/02/05 03:34:34;;;;;;;;;6.00;5.00;;;;;;;;5080720;28;47207;-79
2024/02/05 03:36:59;;;;;;;;;3.00;3.00;;;;;;;;5084673;27;45452;-78
2024/02/05 03:39:26;;;;;;;;;3.33;3.33;;;;;;;;5081454;28;45335;-78
2024/02/05 03:41:51;;;;;;;;;3.67;2.00;;;;;;;;5081115;27;45448;-79
2024/02/05 03:44:16;;;;;;;;;2.33;2.00;;;;;;;;5081902;28;45337;-79
2024/02/05 03:46:41;;;;;;;;;5.33;5.00;;;;;;;;5085043;27;45323;-79
2024/02/05 03:49:07;;;;;;;;;4.00;2.67;;;;;;;;5083916;27;45261;-79
2024/02/05 03:51:32;;;;;;;;;4.00;4.00;;;;;;;;5081802;28;45543;-79
2024/02/05 03:53:57;;;;;;;;;3.00;2.33;;;;;;;;5081312;28;48090;-78
2024/02/05 03:56:22;;;;;;;;;4.33;3.00;;;;;;;;5081350;27;45387;-80
2024/02/05 03:58:50;;;;;;;;;5.00;4.00;;;;;;;;5082185;27;45366;-79
2024/02/05 04:01:15;;;;;;;;;4.00;4.00;;;;;;;;5083654;27;45194;-80
2024/02/05 04:03:41;;;;;;;;;2.00;2.00;;;;;;;;5089180;27;46284;-79
2024/02/05 04:06:06;;;;;;;;;5.67;5.67;;;;;;;;5084248;28;45300;-78
2024/02/05 04:08:31;;;;;;;;;3.67;3.00;;;;;;;;5080351;28;45298;-79
2024/02/05 04:10:56;;;;;;;;;6.67;5.67;;;;;;;;5081802;28;46209;-79
2024/02/05 04:13:22;;;;;;;;;9.00;5.33;;;;;;;;5084074;27;45240;-79
2024/02/05 04:15:47;;;;;;;;;6.67;5.00;;;;;;;;5084195;27;45306;-79
2024/02/05 04:18:12;;;;;;;;;6.00;4.00;;;;;;;;5084258;28;45362;-78
2024/02/05 04:20:37;;;;;;;;;5.00;5.00;;;;;;;;5084598;27;45331;-79
2024/02/05 04:23:02;;;;;;;;;4.33;4.33;;;;;;;;5084319;27;45248;-79
2024/02/05 04:25:28;;;;;;;;;2.33;2.00;;;;;;;;5084439;28;45227;-79
2024/02/05 04:27:53;;;;;;;;;4.00;3.00;;;;;;;;5084877;28;45230;-79
2024/02/05 04:30:26;;;;;;;;;5.00;4.00;;;;;;;;5083738;28;45469;-79
2024/02/05 04:32:52;;;;;;;;;4.00;4.00;;;;;;;;5066927;27;45312;-79
2024/02/05 04:35:17;;;;;;;;;3.67;3.67;;;;;;;;5060038;28;45434;-79
2024/02/05 04:37:43;;;;;;;;;3.00;3.00;;;;;;;;5062418;28;45451;-79
2024/02/05 04:40:08;;;;;;;;;2.00;2.00;;;;;;;;5061825;28;47046;-78
2024/02/05 04:42:34;;;;;;;;;1.67;1.00;;;;;;;;5065948;28;48197;-78
2024/02/05 04:44:59;;;;;;;;;4.33;4.00;;;;;;;;5063582;28;45924;-79
2024/02/05 04:47:24;;;;;;;;;3.00;3.00;;;;;;;;5062247;28;45312;-79
2024/02/05 04:49:50;;;;;;;;;7.67;4.00;;;;;;;;5064519;28;45451;-78
2024/02/05 04:52:16;;;;;;;;;2.00;2.00;;;;;;;;5063314;28;45362;-79
2024/02/05 04:54:41;;;;;;;;;4.00;2.00;;;;;;;;5062035;28;45309;-79
2024/02/05 04:57:06;;;;;;;;;3.00;3.00;;;;;;;;5062886;28;45424;-79
2024/02/05 04:59:31;;;;;;;;;2.67;2.67;;;;;;;;5065314;28;45327;-79
2024/02/05 05:01:56;;;;;;;;;7.00;4.00;;;;;;;;5066340;28;45280;-78
2024/02/05 05:04:22;;;;;;;;;4.67;4.00;;;;;;;;5059842;28;45304;-78
2024/02/05 05:06:47;;;;;;;;;3.67;3.00;;;;;;;;5062722;28;45413;-78
2024/02/05 05:09:12;;;;;;;;;5.67;3.00;;;;;;;;5063525;28;45239;-78
2024/02/05 05:11:38;;;;;;;;;3.67;3.67;;;;;;;;5059992;28;47273;-78
2024/02/05 05:14:03;;;;;;;;;6.33;6.33;;;;;;;;5063815;28;45228;-78
2024/02/05 05:16:30;;;;;;;;;6.00;4.00;;;;;;;;5062798;28;45575;-78
2024/02/05 05:18:56;;;;;;;;;3.00;3.00;;;;;;;;5059842;28;45216;-78
2024/02/05 05:21:21;;;;;;;;;1.33;1.33;;;;;;;;5060132;28;45992;-79
2024/02/05 05:23:46;;;;;;;;;2.67;2.67;;;;;;;;5064212;28;45121;-78
2024/02/05 05:26:11;;;;;;;;;4.67;3.00;;;;;;;;5065626;28;45362;-78
2024/02/05 05:28:43;;;;;;;;;4.00;1.33;;;;;;;;5063171;28;46207;-79
2024/02/05 05:31:08;;;;;;;;;4.00;4.00;;;;;;;;5062493;28;47942;-78
2024/02/05 05:33:33;;;;;;;;;2.67;1.00;;;;;;;;5067251;28;45391;-77
2024/02/05 05:35:58;;;;;;;;;6.00;5.00;;;;;;;;5067066;28;45290;-78
2024/02/05 05:38:24;;;;;;;;;4.00;3.00;;;;;;;;5063699;28;47317;-79
2024/02/05 05:40:49;;;;;;;;;5.00;4.67;;;;;;;;5068413;28;45975;-78
2024/02/05 05:43:14;;;;;;;;;6.33;5.00;;;;;;;;5063124;28;45980;-78
2024/02/05 05:45:39;;;;;;;;;5.00;4.00;;;;;;;;5064798;28;45362;-79
2024/02/05 05:48:07;;;;;;;;;3.33;3.33;;;;;;;;5062329;28;45844;-78
2024/02/05 05:50:32;;;;;;;;;6.00;4.33;;;;;;;;5065471;28;45514;-79
2024/02/05 05:52:57;;;;;;;;;5.33;4.33;;;;;;;;5063082;28;45247;-79
2024/02/05 05:55:23;;;;;;;;;3.33;3.33;;;;;;;;5064268;28;45457;-79
2024/02/05 05:57:48;;;;;;;;;3.00;3.00;;;;;;;;5073141;28;47198;-79
2024/02/05 06:00:14;;;;;;;;;2.00;2.00;;;;;;;;5085972;27;45319;-77
2024/02/05 06:02:39;;;;;;;;;5.33;5.33;;;;;;;;5085715;27;45269;-79
2024/02/05 06:05:05;;;;;;;;;2.00;1.67;;;;;;;;5081709;28;45476;-79
2024/02/05 06:07:30;;;;;;;;;4.33;3.67;;;;;;;;5084038;27;45261;-78
2024/02/05 06:09:55;;;;;;;;;4.00;3.00;;;;;;;;5084270;27;45346;-78
2024/02/05 06:12:20;;;;;;;;;5.00;5.00;;;;;;;;5081813;28;45349;-79
2024/02/05 06:14:46;;;;;;;;;5.33;4.00;;;;;;;;5082108;28;45366;-78
2024/02/05 06:17:11;;;;;;;;;8.33;5.00;;;;;;;;5083179;28;46514;-79
2024/02/05 06:19:36;;;;;;;;;3.00;3.00;;;;;;;;5081613;28;47222;-79
2024/02/05 06:22:01;;;;;;;;;6.00;5.00;;;;;;;;5082431;27;45328;-77
2024/02/05 06:24:27;;;;;;;;;4.33;3.00;;;;;;;;5080619;28;45317;-78
2024/02/05 06:26:53;;;;;;;;;5.00;4.67;;;;;;;;5082463;27;45462;-79
2024/02/05 06:29:18;;;;;;;;;4.00;3.00;;;;;;;;5083001;27;46281;-79
2024/02/05 06:31:43;;;;;;;;;3.00;3.00;;;;;;;;5080541;28;45428;-79
2024/02/05 06:34:08;;;;;;;;;4.00;4.00;;;;;;;;5082004;27;45532;-78
2024/02/05 06:36:34;;;;;;;;;3.67;3.67;;;;;;;;5082423;27;45279;-78
2024/02/05 06:39:00;;;;;;;;;5.00;5.00;;;;;;;;5081592;27;46118;-78
2024/02/05 06:41:25;;;;;;;;;5.00;5.00;;;;;;;;5080531;28;46114;-78
2024/02/05 06:43:50;;;;;;;;;5.67;3.00;;;;;;;;5082022;27;45298;-78
2024/02/05 06:46:15;;;;;;;;;6.33;4.67;;;;;;;;5080572;28;46379;-78
2024/02/05 06:48:40;;;;;;;;;6.67;6.33;;;;;;;;5082534;27;45292;-79
2024/02/05 06:51:06;;;;;;;;;4.67;3.67;;;;;;;;5081405;27;45261;-79
2024/02/05 06:53:31;;;;;;;;;5.00;4.33;;;;;;;;5080924;28;45516;-79
2024/02/05 06:55:56;;;;;;;;;4.67;3.00;;;;;;;;5080365;28;46387;-78
2024/02/05 06:58:21;;;;;;;;;5.00;4.00;;;;;;;;5064328;28;47144;-79
2024/02/05 07:00:46;;;;;;;;;5.00;5.00;;;;;;;;5061624;28;45256;-78
2024/02/05 07:03:12;;;;;;;;;8.00;7.00;;;;;;;;5059762;28;45211;-79
2024/02/05 07:05:37;;;;;;;;;7.00;6.00;;;;;;;;5060466;28;45188;-79
2024/02/05 07:08:03;;;;;;;;;7.67;7.67;;;;;;;;5061120;28;45208;-78
2024/02/05 07:10:28;;;;;;;;;8.67;8.33;;;;;;;;5060231;28;45243;-77
2024/02/05 07:12:53;;;;;;;;;11.00;10.00;;;;;;;;5063932;28;45579;-80
2024/02/05 07:15:18;;;;;;;;;9.00;7.00;;;;;;;;5063663;28;45255;-79
2024/02/05 07:17:45;;;;;;;;;6.00;6.00;;;;;;;;5061626;28;48033;-79
2024/02/05 07:20:10;;;;;;;;;7.00;6.00;;;;;;;;5061727;28;45414;-80
2024/02/05 07:22:35;;;;;;;;;9.00;7.00;;;;;;;;5068790;28;45290;-80
2024/02/05 07:25:01;;;;;;;;;5.00;5.00;;;;;;;;5062473;28;46242;-81
2024/02/05 07:27:27;;;;;;;;;6.00;6.00;;;;;;;;5059394;28;47295;-82
2024/02/05 07:29:52;;;;;;;;;6.67;6.67;;;;;;;;5061052;28;45675;-80
2024/02/05 07:32:18;;;;;;;;;6.33;6.33;;;;;;;;5061270;28;45302;-79
2024/02/05 07:34:43;;;;;;;;;8.67;7.00;;;;;;;;5062061;28;45955;-80
2024/02/05 07:37:09;;;;;;;;;10.67;10.67;;;;;;;;5061676;28;45718;-79
2024/02/05 07:39:34;;;;;;;;;11.00;10.00;;;;;;;;5062890;28;45362;-78
2024/02/05 07:41:59;;;;;;;;;8.00;8.00;;;;;;;;5059713;28;45225;-77
2024/02/05 07:44:25;;;;;;;;;9.33;8.00;;;;;;;;5060307;28;45368;-79
2024/02/05 07:46:51;;;;;;;;;8.00;6.67;;;;;;;;5058824;28;48276;-79
2024/02/05 07:49:16;;;;;;;;;8.33;8.33;;;;;;;;5059873;28;45230;-78
2024/02/05 07:51:42;;;;;;;;;7.33;7.33;;;;;;;;5059580;28;45312;-79
2024/02/05 07:54:07;;;;;;;;;10.67;10.00;;;;;;;;5058754;28;45854;-79
2024/02/05 07:56:32;;;;;;;;;11.67;10.33;;;;;;;;5060459;28;46486;-79
2024/02/05 07:58:57;;;;;;;;;9.00;7.67;;;;;;;;5060780;27;45448;-79
2024/02/05 08:01:23;;;;;;;;;9.67;7.33;;;;;;;;5059498;28;45341;-77
2024/02/05 08:03:53;;;;;;;;;10.67;10.00;;;;;;;;5059277;28;45457;-81
2024/02/05 08:06:19;;;;;;;;;10.00;8.00;;;;;;;;5058267;28;47122;-78
2024/02/05 08:08:44;;;;;;;;;10.67;9.33;;;;;;;;5059638;28;45282;-78
2024/02/05 08:11:09;;;;;;;;;10.67;9.00;;;;;;;;5058762;28;45365;-78
2024/02/05 08:13:35;;;;;;;;;9.33;9.00;;;;;;;;5059744;28;45414;-78
2024/02/05 08:16:00;;;;;;;;;7.00;6.00;;;;;;;;5059713;28;45347;-78
2024/02/05 08:18:26;;;;;;;;;11.00;8.33;;;;;;;;5054308;28;45762;-77
2024/02/05 08:20:51;;;;;;;;;9.00;8.33;;;;;;;;5055246;28;45363;-78
2024/02/05 08:23:16;;;;;;;;;9.00;7.00;;;;;;;;5050435;28;47216;-77
2024/02/05 08:25:41;;;;;;;;;9.00;9.00;;;;;;;;5051327;28;45765;-78
2024/02/05 08:28:07;;;;;;;;;11.00;10.33;;;;;;;;5058022;28;45382;-77
2024/02/05 08:30:32;;;;;;;;;9.67;9.67;;;;;;;;5056442;28;45405;-78
2024/02/05 08:32:57;;;;;;;;;11.33;10.67;;;;;;;;5056623;28;47086;-76
2024/02/05 08:35:23;;;;;;;;;11.33;11.00;;;;;;;;5056484;28;47240;-78
2024/02/05 08:37:48;;;;;;;;;9.00;8.33;;;;;;;;5056984;28;45325;-77
2024/02/05 08:40:13;;;;;;;;;9.67;8.33;;;;;;;;5057490;28;45382;-78
2024/02/05 08:42:38;;;;;;;;;8.67;8.00;;;;;;;;5057067;28;46106;-78
2024/02/05 08:45:04;;;;;;;;;13.00;11.67;;;;;;;;5058520;28;45395;-78
2024/02/05 08:47:29;;;;;;;;;8.00;6.67;;;;;;;;5057569;28;45683;-78
2024/02/05 08:49:54;;;;;;;;;12.00;8.67;;;;;;;;5056002;28;45545;-79
2024/02/05 08:52:22;;;;;;;;;7.33;7.00;;;;;;;;5056464;28;45346;-77
2024/02/05 08:54:47;;;;;;;;;9.00;7.33;;;;;;;;5056888;28;48130;-77
2024/02/05 08:57:13;;;;;;;;;11.00;11.00;;;;;;;;5061933;28;45446;-76
2024/02/05 08:59:38;;;;;;;;;5.00;5.00;;;;;;;;5058818;28;45291;-78
2024/02/05 09:02:03;;;;;;;;;12.67;11.00;;;;;;;;5058366;28;45308;-77
2024/02/05 09:04:28;;;;;;;;;13.33;11.67;;;;;;;;5060200;28;45715;-78
2024/02/05 09:06:53;;;;;;;;;9.00;9.00;;;;;;;;5062093;28;45627;-75
2024/02/05 09:09:19;;;;;;;;;12.00;11.00;;;;;;;;5062074;28;45231;-78
2024/02/05 09:11:44;;;;;;;;;8.33;6.67;;;;;;;;5061719;28;45315;-77
2024/02/05 09:14:09;;;;;;;;;9.33;8.67;;;;;;;;5059993;28;47407;-78
2024/02/05 09:16:34;;;;;;;;;11.33;11.00;;;;;;;;5059880;28;45747;-78
2024/02/05 09:19:00;;;;;;;;;11.00;11.00;;;;;;;;5059792;28;45288;-78
2024/02/05 09:21:25;;;;;;;;;10.33;9.00;;;;;;;;5061804;28;45278;-79
2024/02/05 09:23:50;;;;;;;;;14.67;13.67;;;;;;;;5061686;28;45386;-77
2024/02/05 09:26:15;;;;;;;;;12.00;11.67;;;;;;;;5058921;28;45302;-78
2024/02/05 09:28:42;;;;;;;;;14.00;13.00;;;;;;;;5060370;28;45316;-77
2024/02/05 09:31:10;;;;;;;;;13.33;12.00;;;;;;;;5059776;28;46151;-77
2024/02/05 09:33:36;;;;;;;;;17.67;12.00;;;;;;;;5059207;28;47131;-79
2024/02/05 09:36:01;;;;;;;;;17.00;13.00;;;;;;;;5057005;28;45348;-77
2024/02/05 09:38:27;;;;;;;;;14.33;13.67;;;;;;;;5061298;28;45295;-79
2024/02/05 09:40:58;;;;;;;;;14.67;11.67;;;;;;;;5061712;28;45465;-78
2024/02/05 09:43:23;;;;;;;;;15.00;14.00;;;;;;;;5061216;28;45466;-79
2024/02/05 09:45:49;;;;;;;;;14.33;14.00;;;;;;;;5061709;28;45326;-79
2024/02/05 09:48:16;;;;;;;;;15.33;15.00;;;;;;;;5062230;28;45389;-79
2024/02/05 09:50:41;;;;;;;;;16.67;14.00;;;;;;;;5060465;28;46513;-79
2024/02/05 09:53:07;;;;;;;;;16.33;13.33;;;;;;;;5052372;28;46203;-78
2024/02/05 09:55:33;;;;;;;;;19.00;17.33;;;;;;;;5058239;28;45433;-79
2024/02/05 09:57:58;;;;;;;;;22.33;16.00;;;;;;;;5064254;28;45360;-78
2024/02/05 10:00:23;;;;;;;;;11.00;9.00;;;;;;;;5057512;28;45517;-80
2024/02/05 10:02:49;;;;;;;;;15.67;14.33;;;;;;;;5059409;28;48301;-81
2024/02/05 10:05:18;;;;;;;;;16.33;15.33;;;;;;;;5059677;28;45338;-79
2024/02/05 10:07:47;;;;;;;;;18.00;17.67;;;;;;;;5056548;28;45367;-79
2024/02/05 10:10:13;;;;;;;;;13.33;13.33;;;;;;;;5059339;28;46666;-80
2024/02/05 10:12:38;;;;;;;;;14.00;14.00;;;;;;;;5060462;28;45280;-79
2024/02/05 10:15:05;;;;;;;;;20.67;16.33;;;;;;;;5058393;28;45338;-78
2024/02/05 10:17:30;;;;;;;;;18.33;16.00;;;;;;;;5059845;28;45308;-79
2024/02/05 10:19:56;;;;;;;;;17.00;14.67;;;;;;;;5060804;28;45619;-79
2024/02/05 10:22:21;;;;;;;;;16.67;11.67;;;;;;;;5061492;28;46169;-78
2024/02/05 10:24:47;;;;;;;;;20.33;18.33;;;;;;;;5060352;28;45263;-79
2024/02/05 10:27:19;;;;;;;;;21.00;17.67;;;;;;;;5061339;28;45265;-79
2024/02/05 10:29:44;;;;;;;;;19.67;15.67;;;;;;;;5045225;28;45391;-79
2024/02/05 10:32:10;;;;;;;;;11.33;11.00;;;;;;;;5061957;28;45489;-78
2024/02/05 10:34:35;;;;;;;;;16.00;13.67;;;;;;;;5060741;28;45373;-80
2024/02/05 10:37:08;;;;;;;;;16.00;13.67;;;;;;;;5060439;28;45283;-78
2024/02/05 10:39:36;;;;;;;;;14.67;14.67;;;;;;;;5054136;28;45501;-80
2024/02/05 10:42:05;;;;;;;;;17.33;14.67;;;;;;;;5051046;28;45276;-79
2024/02/05 10:44:30;;;;;;;;;12.67;12.67;;;;;;;;5060559;28;45492;-78
2024/02/05 10:46:55;;;;;;;;;22.67;18.00;;;;;;;;5059892;28;45278;-78
2024/02/05 10:49:23;;;;;;;;;17.33;17.33;;;;;;;;5058002;28;47241;-78
2024/02/05 10:51:48;;;;;;;;;16.33;15.00;;;;;;;;5060646;28;45476;-77
2024/02/05 10:54:13;;;;;;;;;17.67;13.33;;;;;;;;5059404;28;45310;-77
2024/02/05 10:56:39;;;;;;;;;20.00;14.67;;;;;;;;5060977;28;45382;-79
2024/02/05 10:59:05;;;;;;;;;20.00;16.67;;;;;;;;5061343;27;45316;-80
2024/02/05 11:01:32;;;;;;;;;15.67;13.33;;;;;;;;5059801;28;45877;-80
2024/02/05 11:04:02;;;;;;;;;18.33;16.00;;;;;;;;5059002;28;45276;-79
2024/02/05 11:06:33;;;;;;;;;18.00;16.00;;;;;;;;5058545;28;45350;-79
2024/02/05 11:09:00;;;;;;;;;20.33;18.67;;;;;;;;5058498;28;46357;-79
2024/02/05 11:11:26;;;;;;;;;18.33;16.00;;;;;;;;5060819;28;45343;-78
2024/02/05 11:13:51;;;;;;;;;15.67;14.33;;;;;;;;5060175;28;45323;-79
2024/02/05 11:16:17;;;;;;;;;24.00;20.33;;;;;;;;5059053;28;45787;-79
2024/02/05 11:18:47;;;;;;;;;21.33;18.33;;;;;;;;5059597;28;45480;-80
2024/02/05 11:21:16;;;;;;;;;18.33;16.00;;;;;;;;5058493;28;48451;-78
2024/02/05 11:23:43;;;;;;;;;19.33;16.33;;;;;;;;5059182;28;45552;-79
2024/02/05 11:26:08;;;;;;;;;18.67;16.00;;;;;;;;5057678;28;45377;-79
2024/02/05 11:28:33;;;;;;;;;16.00;14.00;;;;;;;;5058681;28;46471;-78
2024/02/05 11:31:06;;;;;;;;;16.33;15.33;;;;;;;;5059679;28;45430;-81
2024/02/05 11:33:36;;;;;;;;;20.67;16.33;;;;;;;;5058246;28;45668;-82
2024/02/05 11:36:02;;;;;;;;;10.67;6.00;;;;;;;;5059237;28;45386;-78
2024/02/05 11:38:27;;;;;;;;;17.00;15.00;;;;;;;;5059062;28;45377;-81
2024/02/05 11:40:52;;;;;;;;;16.67;13.00;;;;;;;;5059595;28;46512;-80
2024/02/05 11:43:23;;;;;;;;;16.67;15.00;;;;;;;;5059976;28;45436;-79
2024/02/05 11:45:48;;;;;;;;;22.00;17.00;;;;;;;;5059868;28;45358;-75
2024/02/05 11:48:13;;;;;;;;;19.00;15.33;;;;;;;;5057699;28;47167;-79
2024/02/05 11:50:38;;;;;;;;;18.00;17.33;;;;;;;;5058577;28;45393;-80
2024/02/05 11:53:04;;;;;;;;;17.67;16.33;;;;;;;;5056748;28;45779;-80
2024/02/05 11:55:29;;;;;;;;;16.67;14.67;;;;;;;;5058230;28;45390;-78
2024/02/05 11:57:55;;;;;;;;;20.00;17.33;;;;;;;;5059091;28;45468;-78
2024/02/05 12:00:21;;;;;;;;;13.67;12.33;;;;;;;;5059314;28;45471;-78
2024/02/05 12:02:46;;;;;;;;;17.00;15.00;;;;;;;;5058191;28;45383;-77
2024/02/05 12:05:12;;;;;;;;;13.67;13.67;;;;;;;;5058884;28;45694;-78
2024/02/05 12:07:38;;;;;;;;;17.33;16.00;;;;;;;;5057043;28;47003;-77
2024/02/05 12:10:04;;;;;;;;;17.00;13.00;;;;;;;;5057376;28;46248;-77
2024/02/05 12:12:30;;;;;;;;;22.00;15.00;;;;;;;;5059064;28;45259;-79
2024/02/05 12:14:55;;;;;;;;;22.33;16.00;;;;;;;;5058948;28;45378;-79
2024/02/05 12:17:20;;;;;;;;;18.33;17.67;;;;;;;;5059130;28;45317;-78
2024/02/05 12:19:46;;;;;;;;;17.67;13.00;;;;;;;;5057325;28;48203;-79
2024/02/05 12:22:11;;;;;;;;;12.00;12.00;;;;;;;;5058624;28;45381;-79
2024/02/05 12:24:37;;;;;;;;;15.67;14.33;;;;;;;;5053144;28;45268;-80
2024/02/05 12:27:02;;;;;;;;;11.00;10.67;;;;;;;;5056470;28;46598;-79
2024/02/05 12:29:28;;;;;;;;;13.33;11.00;;;;;;;;5056508;28;47286;-79
2024/02/05 12:32:03;;;;;;;;;13.00;9.00;;;;;;;;5058426;28;45263;-78
2024/02/05 12:34:28;;;;;;;;;13.33;10.67;;;;;;;;5057883;28;45405;-79
2024/02/05 12:36:53;;;;;;;;;17.33;13.67;;;;;;;;5056674;28;46169;-80
2024/02/05 12:39:19;;;;;;;;;20.00;16.33;;;;;;;;5057716;28;45515;-80
2024/02/05 12:41:45;;;;;;;;;11.67;11.67;;;;;;;;5057512;28;45848;-83
2024/02/05 12:44:11;;;;;;;;;15.00;15.00;;;;;;;;5058460;28;45311;-80
2024/02/05 12:46:36;;;;;;;;;14.33;11.67;;;;;;;;5057030;28;45919;-79
2024/02/05 12:49:01;;;;;;;;;19.00;17.00;;;;;;;;5057721;28;45421;-80
2024/02/05 12:51:26;;;;;;;;;14.00;13.33;;;;;;;;5056590;28;45799;-80
2024/02/05 12:53:52;;;;;;;;;15.33;14.33;;;;;;;;5058312;28;45395;-80
2024/02/05 12:56:17;;;;;;;;;13.67;13.33;;;;;;;;5058675;28;45540;-78
2024/02/05 12:58:43;;;;;;;;;19.33;14.67;;;;;;;;5077576;28;46183;-78
2024/02/05 13:01:11;;;;;;;;;15.67;13.67;;;;;;;;5078440;27;45287;-78
2024/02/05 13:03:39;;;;;;;;;18.00;17.00;;;;;;;;5078279;27;45491;-78
2024/02/05 13:06:04;;;;;;;;;14.00;13.00;;;;;;;;5076078;28;46567;-80
2024/02/05 13:08:30;;;;;;;;;13.67;13.00;;;;;;;;5057508;28;45530;-78
2024/02/05 13:10:55;;;;;;;;;18.67;16.67;;;;;;;;5058207;28;45326;-79
2024/02/05 13:13:21;;;;;;;;;18.00;13.33;;;;;;;;5058943;28;45184;-78
2024/02/05 13:15:46;;;;;;;;;18.67;16.67;;;;;;;;5058269;28;45276;-78
2024/02/05 13:18:12;;;;;;;;;14.33;12.00;;;;;;;;5057968;28;46180;-79
2024/02/05 13:20:37;;;;;;;;;15.00;12.33;;;;;;;;5058178;28;45501;-80
2024/02/05 13:23:03;;;;;;;;;20.67;14.00;;;;;;;;5056166;28;45461;-82
2024/02/05 13:25:28;;;;;;;;;18.00;15.00;;;;;;;;5057440;28;47637;-78
2024/02/05 13:27:54;;;;;;;;;5.00;5.00;;;;;;;;5056846;28;47098;-78
2024/02/05 13:30:19;;;;;;;;;18.67;16.67;;;;;;;;5056622;28;45359;-76
2024/02/05 13:32:44;;;;;;;;;16.67;14.67;;;;;;;;5058178;28;45231;-77
2024/02/05 13:35:10;;;;;;;;;15.00;12.67;;;;;;;;5058866;28;45252;-78
2024/02/05 13:37:36;;;;;;;;;19.33;16.67;;;;;;;;5057976;28;45340;-77
2024/02/05 13:40:01;;;;;;;;;15.00;14.67;;;;;;;;5057930;28;45533;-77
2024/02/05 13:42:29;;;;;;;;;17.00;14.33;;;;;;;;5056892;28;45417;-77
2024/02/05 13:44:54;;;;;;;;;15.67;13.33;;;;;;;;5058085;28;45401;-77
2024/02/05 13:47:19;;;;;;;;;14.00;13.33;;;;;;;;5059306;28;45401;-76
2024/02/05 13:49:44;;;;;;;;;16.33;12.00;;;;;;;;5058056;28;45420;-78
2024/02/05 13:52:10;;;;;;;;;19.00;15.33;;;;;;;;5057885;28;45487;-79
2024/02/05 13:54:35;;;;;;;;;15.67;14.67;;;;;;;;5060318;28;46560;-78
2024/02/05 13:57:00;;;;;;;;;10.67;10.33;;;;;;;;5069113;28;45900;-77
2024/02/05 13:59:25;;;;;;;;;14.67;13.33;;;;;;;;5082496;27;45402;-79
2024/02/05 14:01:53;;;;;;;;;19.33;17.33;;;;;;;;5080014;28;45204;-78
2024/02/05 14:04:19;;;;;;;;;13.00;13.00;;;;;;;;5062892;28;45301;-77
2024/02/05 14:06:44;;;;;;;;;15.00;14.00;;;;;;;;5061001;28;47411;-78
2024/02/05 14:09:11;;;;;;;;;15.33;14.00;;;;;;;;5061082;28;45323;-80
2024/02/05 14:11:36;;;;;;;;;22.33;20.00;;;;;;;;5062036;28;45416;-79
2024/02/05 14:14:01;;;;;;;;;18.00;13.67;;;;;;;;5064489;28;45595;-79
2024/02/05 14:16:27;;;;;;;;;21.33;17.00;;;;;;;;5063487;28;46484;-79
2024/02/05 14:18:52;;;;;;;;;21.33;18.00;;;;;;;;5062414;28;45393;-78
2024/02/05 14:21:18;;;;;;;;;13.00;11.00;;;;;;;;5062636;28;45354;-78
2024/02/05 14:23:43;;;;;;;;;9.67;9.00;;;;;;;;5057187;28;46248;-79